Time;durP1;ratioP1;P1;durP2;ratioP2;P2;SDS_P1;SDS_P2;PMS_P1;PMS_P2;Temp;Humidity;BMP_temperature;BMP_pressure;BME280_temperature;BME280_humidity;BME280_pressure;Samples;Min_cycle;Max_cycle;Signal;HPM_P1;HPM_P2
2021/04/10 00:00:42;;;;;;;11.20;7.60;;;;;;;8.22;56.56;100435.34;3565728;40;20390;-54
2021/04/10 00:03:09;;;;;;;12.68;7.50;;;;;;;8.28;56.29;100438.13;3567989;40;20074;-49
2021/04/10 00:05:36;;;;;;;11.23;8.00;;;;;;;8.33;56.06;100439.13;3569851;40;20597;-53
2021/04/10 00:08:03;;;;;;;13.45;7.80;;;;;;;8.26;56.39;100443.16;3566794;40;20470;-52
2021/04/10 00:10:30;;;;;;;12.38;7.72;;;;;;;8.08;56.63;100450.22;3564299;40;20092;-48
2021/04/10 00:12:58;;;;;;;14.57;7.45;;;;;;;8.03;56.92;100446.66;3565009;40;20064;-53
2021/04/10 00:15:28;;;;;;;12.73;8.13;;;;;;;8.10;56.68;100443.50;3564559;40;20423;-49
2021/04/10 00:17:55;;;;;;;13.30;7.90;;;;;;;8.01;57.01;100448.31;3564716;40;20414;-50
2021/04/10 00:20:36;;;;;;;11.18;7.78;;;;;;;8.15;56.58;100452.16;3564709;40;20061;-52
2021/04/10 00:23:03;;;;;;;12.60;7.22;;;;;;;8.02;57.09;100457.69;3564315;40;20137;-50
2021/04/10 00:25:29;;;;;;;11.68;7.80;;;;;;;7.92;57.65;100443.78;3564531;40;20068;-49
2021/04/10 00:27:56;;;;;;;10.13;7.03;;;;;;;7.72;58.07;100444.78;3565089;40;20402;-55
2021/04/10 00:30:23;;;;;;;12.10;7.03;;;;;;;7.93;57.73;100440.41;3564578;40;20509;-49
2021/04/10 00:32:50;;;;;;;12.07;7.15;;;;;;;8.14;57.08;100436.00;3565278;40;20045;-50
2021/04/10 00:35:17;;;;;;;13.05;7.40;;;;;;;7.79;58.27;100436.53;3564777;40;20446;-54
2021/04/10 00:37:43;;;;;;;10.98;7.22;;;;;;;8.05;57.27;100443.34;3565119;40;20061;-53
2021/04/10 00:40:10;;;;;;;12.18;7.63;;;;;;;8.15;57.23;100439.41;3563955;40;20052;-53
2021/04/10 00:42:38;;;;;;;10.80;7.47;;;;;;;8.24;56.84;100439.69;3563975;40;20375;-52
2021/04/10 00:45:06;;;;;;;10.50;7.65;;;;;;;8.24;56.87;100441.38;3564242;40;20058;-47
2021/04/10 00:47:33;;;;;;;8.88;6.82;;;;;;;8.20;56.63;100440.41;3564292;40;20057;-51
2021/04/10 00:50:00;;;;;;;11.40;7.20;;;;;;;8.28;56.49;100438.97;3564781;40;20409;-51
2021/04/10 00:52:27;;;;;;;13.45;7.65;;;;;;;8.02;57.71;100429.63;3564184;40;20060;-52
2021/04/10 00:54:54;;;;;;;12.70;7.30;;;;;;;7.57;58.98;100417.13;3564588;40;20065;-50
2021/04/10 00:57:21;;;;;;;13.48;7.97;;;;;;;7.25;60.30;100409.25;3564112;40;20421;-54
2021/04/10 00:59:48;;;;;;;10.93;7.43;;;;;;;7.27;60.37;100410.19;3564673;40;20207;-54
2021/04/10 01:02:14;;;;;;;10.25;7.03;;;;;;;7.48;60.06;100417.69;3564145;40;20065;-49
2021/04/10 01:04:42;;;;;;;11.80;7.25;;;;;;;7.00;61.54;100416.88;3561536;40;20065;-50
2021/04/10 01:07:09;;;;;;;11.95;7.28;;;;;;;6.77;62.16;100413.50;3561115;40;20058;-49
2021/04/10 01:09:36;;;;;;;11.15;7.07;;;;;;;6.54;64.02;100415.19;3564336;40;20073;-52
2021/04/10 01:12:25;;;;;;;14.07;7.53;;;;;;;7.00;62.85;100414.31;3564315;40;20146;-55
2021/04/10 01:15:17;;;;;;;13.02;7.47;;;;;;;7.09;62.72;100417.19;3564348;40;20069;-52
2021/04/10 01:17:53;;;;;;;11.88;7.53;;;;;;;6.63;64.39;100421.47;3563333;40;20092;-52
2021/04/10 01:20:45;;;;;;;;;;;;;;;6.13;65.91;100409.38;3564070;40;20049;-52
2021/04/10 01:23:21;;;;;;;11.75;7.28;;;;;;;6.06;66.17;100405.75;3563903;40;19947;-52
2021/04/10 01:26:00;;;;;;;;;;;;;;;6.01;66.86;100407.25;3565187;40;20073;-52
2021/04/10 01:28:51;;;;;;;11.80;7.20;;;;;;;6.49;65.46;100409.06;3564473;40;20479;-49
2021/04/10 01:31:23;;;;;;;11.20;7.55;;;;;;;6.07;65.74;100410.03;3563916;40;20124;-52
2021/04/10 01:33:54;;;;;;;14.50;8.25;;;;;;;6.02;65.96;100419.16;3564406;40;20065;-51
2021/04/10 01:36:27;;;;;;;10.73;8.38;;;;;;;5.70;69.03;100422.03;3564194;40;20791;-49
2021/04/10 01:38:54;;;;;;;12.20;7.50;;;;;;;5.57;69.54;100413.91;3564434;40;20065;-51
2021/04/10 01:41:22;;;;;;;13.10;8.43;;;;;;;5.40;70.44;100426.72;3563424;40;20422;-51
2021/04/10 01:43:51;;;;;;;12.75;8.30;;;;;;;5.25;71.36;100432.00;3564660;40;20121;-52
2021/04/10 01:46:19;;;;;;;12.45;8.25;;;;;;;5.23;71.27;100421.81;3563884;40;20086;-52
2021/04/10 01:48:47;;;;;;;13.70;8.43;;;;;;;5.12;71.65;100428.06;3564681;40;20073;-47
2021/04/10 01:51:16;;;;;;;12.45;7.78;;;;;;;5.15;71.64;100422.28;3565257;40;20053;-49
2021/04/10 01:53:45;;;;;;;12.73;8.68;;;;;;;5.23;70.88;100424.34;3565388;40;20049;-57
2021/04/10 01:56:13;;;;;;;12.32;8.18;;;;;;;5.45;69.74;100423.53;3565332;40;20089;-49
2021/04/10 01:58:42;;;;;;;13.48;8.30;;;;;;;5.41;69.24;100419.19;3565675;40;20411;-51
2021/04/10 02:01:16;;;;;;;12.40;7.72;;;;;;;5.78;69.09;100424.09;3562123;40;20104;-53
2021/04/10 02:03:44;;;;;;;13.35;7.72;;;;;;;5.60;69.02;100421.66;3564945;40;20045;-53
2021/04/10 02:06:13;;;;;;;14.02;8.30;;;;;;;5.47;68.78;100421.09;3565532;40;20093;-47
2021/04/10 02:08:44;;;;;;;12.07;8.30;;;;;;;5.67;68.04;100417.69;3565607;40;20057;-49
2021/04/10 02:11:14;;;;;;;12.93;7.82;;;;;;;5.62;69.10;100404.81;3562375;40;20066;-47
2021/04/10 02:13:42;;;;;;;11.35;7.82;;;;;;;5.83;68.00;100412.44;3565661;40;20081;-51
2021/04/10 02:16:08;;;;;;;13.25;7.85;;;;;;;5.85;67.93;100415.03;3562171;40;20057;-52
2021/04/10 02:18:36;;;;;;;12.35;8.05;;;;;;;5.91;67.24;100406.78;3565534;40;20060;-50
2021/04/10 02:21:08;;;;;;;12.95;8.60;;;;;;;5.84;67.71;100410.75;3565473;40;20082;-50
2021/04/10 02:23:39;;;;;;;13.48;7.97;;;;;;;5.87;67.83;100411.75;3565310;40;20105;-52
2021/04/10 02:26:07;;;;;;;12.70;8.45;;;;;;;5.92;68.43;100411.97;3565220;40;20342;-52
2021/04/10 02:28:33;;;;;;;13.05;7.88;;;;;;;5.99;68.41;100419.03;3565218;40;20426;-51
2021/04/10 02:31:03;;;;;;;11.85;7.88;;;;;;;6.01;69.92;100413.97;3565594;40;20060;-54
2021/04/10 02:33:36;;;;;;;13.90;8.45;;;;;;;6.23;69.19;100416.56;3565047;40;20113;-51
2021/04/10 02:36:04;;;;;;;11.35;7.93;;;;;;;6.02;69.82;100418.28;3564751;40;20706;-51
2021/04/10 02:38:33;;;;;;;14.52;8.48;;;;;;;5.65;69.40;100413.38;3565233;40;20093;-53
2021/04/10 02:41:22;;;;;;;12.30;8.23;;;;;;;5.66;70.73;100408.34;3564370;40;20053;-50
2021/04/10 02:43:55;;;;;;;11.10;8.32;;;;;;;5.70;71.24;100407.66;3565231;40;20057;-56
2021/04/10 02:46:26;;;;;;;13.35;8.75;;;;;;;5.72;71.26;100417.88;3564857;40;20045;-49
2021/04/10 02:49:01;;;;;;;12.98;8.30;;;;;;;6.19;69.93;100418.94;3565519;40;20159;-49
2021/04/10 02:51:47;;;;;;;15.60;9.50;;;;;;;5.83;70.06;100419.19;3564681;40;20079;-47
2021/04/10 02:54:18;;;;;;;13.18;9.05;;;;;;;5.86;70.48;100411.69;3564920;40;20077;-48
2021/04/10 02:56:50;;;;;;;13.43;9.05;;;;;;;6.03;68.54;100422.56;3565640;40;20470;-50
2021/04/10 02:59:20;;;;;;;13.52;9.90;;;;;;;5.66;70.41;100421.03;3565057;40;20056;-53
2021/04/10 03:01:49;;;;;;;14.57;10.57;;;;;;;5.68;70.36;100423.63;3565040;40;20077;-53
2021/04/10 03:04:16;;;;;;;14.75;10.93;;;;;;;5.62;71.13;100432.75;3565148;40;20411;-49
2021/04/10 03:06:44;;;;;;;14.32;11.48;;;;;;;5.77;70.00;100436.72;3568345;40;20088;-53
2021/04/10 03:09:11;;;;;;;15.82;12.00;;;;;;;5.48;71.43;100432.97;3568869;40;20117;-47
2021/04/10 03:11:39;;;;;;;14.18;11.57;;;;;;;5.59;72.01;100440.25;3566443;40;20093;-51
2021/04/10 03:14:08;;;;;;;17.38;11.57;;;;;;;5.69;72.08;100436.41;3565034;40;20064;-51
2021/04/10 03:16:35;;;;;;;15.25;11.82;;;;;;;5.63;71.26;100438.69;3565210;40;20050;-53
2021/04/10 03:19:06;;;;;;;14.75;10.88;;;;;;;5.64;71.63;100443.00;3565098;40;20149;-53
2021/04/10 03:21:32;;;;;;;18.77;11.85;;;;;;;5.64;72.17;100440.44;3564673;40;20877;-52
2021/04/10 03:23:59;;;;;;;13.75;9.98;;;;;;;5.63;72.08;100439.56;3564367;40;20821;-50
2021/04/10 03:26:26;;;;;;;15.82;11.13;;;;;;;5.78;71.60;100446.97;3564753;40;20802;-52
2021/04/10 03:28:54;;;;;;;16.80;11.38;;;;;;;5.79;72.34;100453.78;3565247;40;20154;-52
2021/04/10 03:31:21;;;;;;;12.68;9.63;;;;;;;6.01;71.08;100463.16;3564562;40;20045;-52
2021/04/10 03:33:48;;;;;;;12.68;10.27;;;;;;;6.07;70.82;100457.47;3564934;40;20045;-50
2021/04/10 03:36:14;;;;;;;11.43;8.75;;;;;;;6.18;70.71;100460.41;3564877;40;20065;-51
2021/04/10 03:38:42;;;;;;;15.27;9.85;;;;;;;6.20;70.67;100466.44;3565523;40;20057;-49
2021/04/10 03:41:09;;;;;;;17.23;9.85;;;;;;;6.07;70.79;100465.09;3561746;40;20057;-51
2021/04/10 03:43:36;;;;;;;13.68;9.85;;;;;;;6.03;70.92;100469.16;3565084;40;20059;-50
2021/04/10 03:46:02;;;;;;;14.25;10.63;;;;;;;6.13;70.92;100471.25;3565080;40;20081;-47
2021/04/10 03:48:29;;;;;;;13.90;10.20;;;;;;;6.07;71.52;100471.03;3564669;40;20053;-54
2021/04/10 03:50:57;;;;;;;15.10;10.50;;;;;;;6.15;71.83;100470.44;3565188;40;20084;-53
2021/04/10 03:53:24;;;;;;;16.05;10.27;;;;;;;6.31;71.97;100470.25;3564646;40;20072;-52
2021/04/10 03:55:51;;;;;;;12.35;10.52;;;;;;;6.44;72.11;100479.25;3565316;40;20699;-51
2021/04/10 03:58:17;;;;;;;17.83;11.43;;;;;;;6.16;74.48;100479.84;3564599;40;20093;-49
2021/04/10 04:00:44;;;;;;;14.68;11.23;;;;;;;6.04;76.23;100482.75;3565452;40;20054;-49
2021/04/10 04:03:10;;;;;;;15.20;11.18;;;;;;;6.93;72.01;100493.81;3550553;40;20062;-55
2021/04/10 04:05:37;;;;;;;15.25;11.52;;;;;;;6.66;73.11;100489.44;3563754;40;20121;-50
2021/04/10 04:08:04;;;;;;;16.60;11.30;;;;;;;6.18;76.72;100498.56;3564533;40;20064;-52
2021/04/10 04:10:30;;;;;;;18.58;12.10;;;;;;;6.51;77.24;100493.91;3564593;40;20419;-53
2021/04/10 04:12:57;;;;;;;13.73;11.73;;;;;;;6.30;79.59;100499.91;3564160;40;20147;-50
2021/04/10 04:15:25;;;;;;;15.55;11.93;;;;;;;6.36;80.31;100504.38;3564209;40;20061;-48
2021/04/10 04:17:51;;;;;;;16.73;12.20;;;;;;;5.77;85.74;100501.09;3564980;40;20061;-50
2021/04/10 04:20:18;;;;;;;16.35;12.52;;;;;;;5.77;86.78;100500.22;3564393;40;20419;-52
2021/04/10 04:22:45;;;;;;;15.88;12.07;;;;;;;6.05;85.86;100512.44;3565286;40;20112;-49
2021/04/10 04:25:12;;;;;;;17.20;11.98;;;;;;;5.80;87.90;100519.00;3564567;40;20112;-53
2021/04/10 04:27:39;;;;;;;16.60;12.85;;;;;;;6.08;87.72;100521.06;3564769;40;20091;-52
2021/04/10 04:30:09;;;;;;;18.65;12.90;;;;;;;5.83;89.95;100521.69;3564353;40;20057;-50
2021/04/10 04:32:36;;;;;;;13.48;11.40;;;;;;;5.84;90.50;100531.03;3564105;40;20082;-53
2021/04/10 04:35:03;;;;;;;15.98;12.50;;;;;;;5.98;90.95;100536.75;3564242;40;20064;-52
2021/04/10 04:37:29;;;;;;;16.58;12.57;;;;;;;5.68;92.19;100532.88;3564439;40;20081;-50
2021/04/10 04:39:56;;;;;;;16.55;12.82;;;;;;;5.56;94.04;100529.00;3565033;40;20091;-53
2021/04/10 04:42:23;;;;;;;21.27;14.68;;;;;;;5.35;95.33;100530.59;3563968;40;20071;-53
2021/04/10 04:44:49;;;;;;;20.70;14.15;;;;;;;5.44;96.56;100536.09;3564727;40;20053;-49
2021/04/10 04:47:16;;;;;;;20.02;14.63;;;;;;;5.48;97.36;100530.34;3564421;40;20061;-49
2021/04/10 04:49:42;;;;;;;19.33;15.30;;;;;;;5.45;97.08;100524.25;3554677;40;20968;-51
2021/04/10 04:52:10;;;;;;;22.80;16.13;;;;;;;5.25;99.59;100544.56;3563972;40;20061;-48
2021/04/10 04:54:36;;;;;;;23.23;17.58;;;;;;;5.26;100.00;100546.28;3564701;40;20758;-48
2021/04/10 04:57:03;;;;;;;23.05;17.00;;;;;;;5.34;100.00;100550.06;3564132;40;20045;-52
2021/04/10 04:59:29;;;;;;;26.95;18.17;;;;;;;5.33;100.00;100558.47;3564178;40;20045;-54
2021/04/10 05:01:56;;;;;;;23.77;16.48;;;;;;;5.83;97.26;100553.88;3564556;40;20081;-48
2021/04/10 05:04:22;;;;;;;20.10;15.32;;;;;;;5.85;97.01;100560.72;3550396;40;20432;-48
2021/04/10 05:06:49;;;;;;;22.17;15.07;;;;;;;5.94;97.61;100567.91;3564440;40;20593;-49
2021/04/10 05:09:15;;;;;;;23.73;15.95;;;;;;;5.69;96.92;100562.56;3564336;40;20084;-53
2021/04/10 05:11:42;;;;;;;21.58;17.38;;;;;;;5.31;98.85;100571.88;3564379;40;20101;-52
2021/04/10 05:14:10;;;;;;;28.20;17.33;;;;;;;5.10;99.82;100569.25;3563976;40;20398;-51
2021/04/10 05:16:36;;;;;;;22.50;17.30;;;;;;;5.08;100.00;100570.84;3564275;40;20057;-48
2021/04/10 05:19:03;;;;;;;29.40;21.98;;;;;;;4.95;100.00;100571.13;3564491;40;20065;-50
2021/04/10 05:21:30;;;;;;;32.05;22.77;;;;;;;5.12;100.00;100577.81;3564219;40;20077;-54
2021/04/10 05:23:56;;;;;;;29.10;22.20;;;;;;;5.31;99.98;100565.13;3564649;40;20085;-55
2021/04/10 05:26:25;;;;;;;33.00;22.67;;;;;;;5.18;100.00;100572.16;3565643;40;20070;-53
2021/04/10 05:28:51;;;;;;;34.90;26.38;;;;;;;5.17;100.00;100575.47;3565927;40;20065;-52
2021/04/10 05:31:18;;;;;;;32.38;23.23;;;;;;;5.16;100.00;100581.34;3552121;40;20061;-50
2021/04/10 05:33:44;;;;;;;27.08;19.38;;;;;;;5.36;100.00;100578.03;3565538;40;20093;-54
2021/04/10 05:36:12;;;;;;;23.77;16.98;;;;;;;5.57;100.00;100593.38;3565554;40;20081;-52
2021/04/10 05:38:38;;;;;;;25.27;17.70;;;;;;;5.44;100.00;100597.03;3565915;40;20084;-50
2021/04/10 05:41:06;;;;;;;22.25;16.75;;;;;;;5.68;100.00;100602.31;3565384;40;20061;-53
2021/04/10 05:43:33;;;;;;;24.45;18.40;;;;;;;5.48;100.00;100603.97;3565435;40;20493;-54
2021/04/10 05:46:02;;;;;;;25.00;17.85;;;;;;;5.41;100.00;100596.91;3565795;40;20151;-51
2021/04/10 05:48:28;;;;;;;24.63;18.42;;;;;;;5.50;100.00;100588.81;3565497;40;20049;-54
2021/04/10 05:50:55;;;;;;;25.25;17.75;;;;;;;5.82;100.00;100605.47;3565528;40;20088;-51
2021/04/10 05:53:22;;;;;;;23.23;17.92;;;;;;;5.74;100.00;100614.44;3565177;40;20082;-52
2021/04/10 05:55:48;;;;;;;22.70;17.17;;;;;;;5.76;100.00;100615.38;3565718;40;20057;-50
2021/04/10 05:58:15;;;;;;;27.20;18.33;;;;;;;5.30;100.00;100613.31;3565593;40;20065;-50
2021/04/10 06:00:41;;;;;;;27.50;19.33;;;;;;;5.52;100.00;100615.16;3565897;40;20093;-51
2021/04/10 06:03:08;;;;;;;29.15;20.15;;;;;;;5.41;100.00;100602.00;3558044;40;20348;-50
2021/04/10 06:05:35;;;;;;;29.38;19.90;;;;;;;5.36;100.00;100609.41;3557502;40;20148;-52
2021/04/10 06:08:01;;;;;;;28.35;20.55;;;;;;;5.23;100.00;100621.47;3565855;40;20107;-49
2021/04/10 06:10:28;;;;;;;29.25;19.67;;;;;;;5.22;100.00;100607.00;3566122;40;20042;-55
2021/04/10 06:12:54;;;;;;;31.10;21.73;;;;;;;5.17;100.00;100619.50;3562251;40;20057;-51
2021/04/10 06:15:21;;;;;;;30.10;21.45;;;;;;;5.48;100.00;100619.22;3566093;40;20105;-52
2021/04/10 06:17:48;;;;;;;28.13;19.13;;;;;;;5.61;100.00;100615.56;3567021;40;20061;-50
2021/04/10 06:20:17;;;;;;;23.85;18.92;;;;;;;5.70;100.00;100623.59;3565865;40;20064;-51
2021/04/10 06:22:44;;;;;;;25.13;18.92;;;;;;;5.87;100.00;100625.22;3565484;40;20057;-48
2021/04/10 06:25:10;;;;;;;32.38;23.45;;;;;;;5.77;100.00;100629.78;3565635;40;20121;-52
2021/04/10 06:27:37;;;;;;;28.25;19.95;;;;;;;5.76;100.00;100635.69;3558722;40;20065;-52
2021/04/10 06:30:06;;;;;;;28.27;20.73;;;;;;;5.36;100.00;100634.78;3564254;40;20667;-50
2021/04/10 06:32:35;;;;;;;25.98;18.98;;;;;;;5.33;100.00;100637.19;3561619;40;20082;-53
2021/04/10 06:35:04;;;;;;;28.90;20.50;;;;;;;5.39;100.00;100646.75;3564189;40;20057;-51
2021/04/10 06:37:30;;;;;;;29.13;20.67;;;;;;;5.33;100.00;100639.72;3562987;40;20064;-47
2021/04/10 06:39:57;;;;;;;28.98;20.75;;;;;;;5.21;100.00;100636.59;3545282;40;20451;-49
2021/04/10 06:42:25;;;;;;;32.35;21.65;;;;;;;5.47;100.00;100642.88;3564824;40;20057;-50
2021/04/10 06:44:54;;;;;;;27.77;20.02;;;;;;;5.71;100.00;100637.16;3565464;40;20060;-51
2021/04/10 06:47:26;;;;;;;24.98;19.77;;;;;;;5.83;100.00;100640.25;3562775;40;20053;-55
2021/04/10 06:49:55;;;;;;;24.63;17.40;;;;;;;6.03;100.00;100648.75;3565546;40;20041;-54
2021/04/10 06:52:22;;;;;;;24.98;17.00;;;;;;;5.69;100.00;100648.94;3564896;40;20253;-48
2021/04/10 06:55:01;;;;;;;21.38;17.05;;;;;;;5.49;100.00;100645.47;3565344;40;20876;-49
2021/04/10 06:57:38;;;;;;;28.00;18.65;;;;;;;5.48;100.00;100648.81;3564873;40;20055;-55
2021/04/10 07:00:10;;;;;;;23.23;17.52;;;;;;;5.78;100.00;100644.25;3565087;40;20051;-50
2021/04/10 07:02:41;;;;;;;25.35;17.92;;;;;;;5.80;100.00;100642.66;3566522;40;20049;-54
2021/04/10 07:05:08;;;;;;;27.92;17.88;;;;;;;5.66;100.00;100648.78;3544040;40;20042;-52
2021/04/10 07:07:35;;;;;;;27.25;17.73;;;;;;;5.63;100.00;100637.69;3564962;40;20139;-57
2021/04/10 07:10:05;;;;;;;24.65;16.48;;;;;;;5.55;100.00;100643.25;3566324;40;20057;-53
2021/04/10 07:12:33;;;;;;;26.48;17.83;;;;;;;5.49;100.00;100648.03;3565633;40;20058;-58
2021/04/10 07:15:00;;;;;;;22.20;17.80;;;;;;;5.63;100.00;100647.84;3561491;40;20085;-53
2021/04/10 07:17:26;;;;;;;23.40;19.20;;;;;;;5.62;100.00;100643.56;3565233;40;20049;-48
2021/04/10 07:19:53;;;;;;;27.33;20.00;;;;;;;5.62;100.00;100641.03;3553700;40;20092;-51
2021/04/10 07:22:20;;;;;;;30.23;17.88;;;;;;;5.49;100.00;100646.34;3564731;40;20110;-52
2021/04/10 07:24:49;;;;;;;24.02;17.25;;;;;;;5.67;100.00;100646.31;3565982;40;20049;-56
2021/04/10 07:27:21;;;;;;;23.63;16.73;;;;;;;5.46;100.00;100636.06;3565744;40;20380;-53
2021/04/10 07:29:52;;;;;;;23.40;17.92;;;;;;;5.41;100.00;100637.53;3565317;40;20473;-55
2021/04/10 07:32:32;;;;;;;24.50;17.42;;;;;;;5.55;100.00;100636.50;3565025;40;20049;-57
2021/04/10 07:35:02;;;;;;;26.05;17.58;;;;;;;5.72;100.00;100641.44;3565334;40;20053;-54
2021/04/10 07:37:33;;;;;;;23.90;16.95;;;;;;;5.83;100.00;100647.88;3564630;40;20037;-54
2021/04/10 07:40:05;;;;;;;25.20;16.45;;;;;;;5.74;100.00;100645.78;3552506;40;20057;-53
2021/04/10 07:42:38;;;;;;;24.88;16.55;;;;;;;5.75;100.00;100646.66;3565056;40;20323;-55
2021/04/10 07:45:23;;;;;;;21.73;15.95;;;;;;;5.65;100.00;100650.47;3565155;40;20322;-50
2021/04/10 07:48:10;;;;;;;23.77;16.10;;;;;;;5.66;100.00;100652.19;3554063;40;20053;-52
2021/04/10 07:50:41;;;;;;;25.88;16.75;;;;;;;6.07;100.00;100663.34;3562940;40;20672;-55
2021/04/10 07:53:27;;;;;;;22.48;14.82;;;;;;;6.08;100.00;100662.53;3561788;40;20098;-53
2021/04/10 07:55:56;;;;;;;22.60;17.40;;;;;;;6.09;100.00;100666.81;3561957;40;20079;-55
2021/04/10 07:58:37;;;;;;;21.02;15.38;;;;;;;6.28;100.00;100666.78;3560765;40;20381;-56
2021/04/10 08:01:07;;;;;;;21.33;16.70;;;;;;;6.16;100.00;100671.38;3562441;40;20319;-51
2021/04/10 08:03:44;;;;;;;23.55;15.75;;;;;;;6.26;100.00;100670.94;3560959;40;20057;-54
2021/04/10 08:06:13;;;;;;;24.10;16.17;;;;;;;6.61;100.00;100662.25;3565182;40;20049;-54
2021/04/10 08:08:50;;;;;;;20.67;15.05;;;;;;;6.60;100.00;100665.59;3565689;40;20122;-53
2021/04/10 08:11:28;;;;;;;20.08;15.30;;;;;;;6.80;100.00;100663.88;3561872;40;20081;-49
2021/04/10 08:14:00;;;;;;;18.75;13.15;;;;;;;6.62;100.00;100665.69;3564373;40;20061;-51
2021/04/10 08:16:27;;;;;;;18.52;12.98;;;;;;;7.03;100.00;100671.56;3564793;40;20065;-52
2021/04/10 08:18:59;;;;;;;15.88;12.55;;;;;;;7.36;98.47;100677.09;3565475;40;20049;-50
2021/04/10 08:21:32;;;;;;;17.45;12.55;;;;;;;7.49;99.38;100681.84;3564338;40;20404;-53
2021/04/10 08:24:03;;;;;;;16.67;12.70;;;;;;;7.47;96.72;100692.78;3564414;40;20358;-54
2021/04/10 08:26:30;;;;;;;17.52;12.85;;;;;;;8.00;96.13;100699.88;3551488;40;20050;-47
2021/04/10 08:28:57;;;;;;;17.27;11.57;;;;;;;7.88;95.11;100702.84;3562952;40;20088;-50
2021/04/10 08:31:24;;;;;;;16.23;11.95;;;;;;;7.31;96.43;100710.03;3559851;40;20046;-53
2021/04/10 08:33:51;;;;;;;15.32;11.70;;;;;;;7.59;97.35;100719.59;3561388;40;20056;-50
2021/04/10 08:36:18;;;;;;;17.77;11.88;;;;;;;7.89;95.40;100719.00;3561556;40;20064;-47
2021/04/10 08:38:45;;;;;;;15.98;11.50;;;;;;;7.79;95.95;100725.44;3563054;40;20045;-48
2021/04/10 08:41:12;;;;;;;16.83;12.90;;;;;;;7.18;96.67;100724.78;3561794;40;20089;-49
2021/04/10 08:43:46;;;;;;;19.88;12.38;;;;;;;7.61;95.27;100728.16;3561815;40;20301;-50
2021/04/10 08:46:17;;;;;;;15.88;11.50;;;;;;;7.38;96.33;100726.41;3561987;40;20097;-47
2021/04/10 08:48:45;;;;;;;17.27;12.07;;;;;;;7.57;94.74;100731.41;3562641;40;20142;-51
2021/04/10 08:51:16;;;;;;;16.77;12.45;;;;;;;7.28;96.36;100727.72;3559823;40;20175;-50
2021/04/10 08:53:48;;;;;;;15.52;12.18;;;;;;;7.55;95.55;100739.81;3560026;40;20064;-50
2021/04/10 08:56:22;;;;;;;16.40;12.25;;;;;;;7.25;96.55;100736.91;3559555;40;20085;-51
2021/04/10 08:58:49;;;;;;;17.77;12.00;;;;;;;7.17;98.30;100751.06;3559842;40;20323;-50
2021/04/10 09:01:29;;;;;;;17.30;12.35;;;;;;;7.34;98.45;100748.34;3559784;40;20255;-52
2021/04/10 09:03:56;;;;;;;19.35;12.30;;;;;;;7.56;97.28;100750.06;3560005;40;20088;-49
2021/04/10 09:06:30;;;;;;;17.40;13.32;;;;;;;7.71;97.44;100748.91;3559711;40;20054;-50
2021/04/10 09:09:16;;;;;;;17.77;12.23;;;;;;;7.94;95.42;100737.00;3561266;40;20342;-49
2021/04/10 09:11:48;;;;;;;12.95;10.88;;;;;;;8.73;92.23;100749.22;3560080;40;20393;-50
2021/04/10 09:14:43;;;;;;;12.73;10.30;;;;;;;8.57;90.82;100737.63;3558390;40;20068;-49
2021/04/10 09:17:11;;;;;;;15.88;11.05;;;;;;;8.80;88.94;100746.06;3562822;40;20053;-51
2021/04/10 09:19:38;;;;;;;17.02;10.23;;;;;;;9.05;88.54;100747.72;3564512;40;20068;-50
2021/04/10 09:22:06;;;;;;;13.93;10.25;;;;;;;9.35;87.60;100745.31;3562038;40;20053;-52
2021/04/10 09:24:47;;;;;;;11.68;10.32;;;;;;;9.09;86.26;100750.44;3560204;40;20050;-54
2021/04/10 09:27:25;;;;;;;12.55;10.38;;;;;;;8.82;87.83;100755.50;3560895;40;20061;-54
2021/04/10 09:29:57;;;;;;;13.82;9.82;;;;;;;9.13;87.97;100761.63;3560618;40;20069;-51
2021/04/10 09:32:41;;;;;;;17.23;11.13;;;;;;;8.14;91.73;100756.50;3562635;40;20057;-49
2021/04/10 09:35:12;;;;;;;13.43;11.80;;;;;;;8.16;91.63;100765.06;3563837;40;20057;-51
2021/04/10 09:37:39;;;;;;;15.00;11.80;;;;;;;8.21;92.38;100763.53;3563978;40;20359;-53
2021/04/10 09:40:07;;;;;;;13.88;10.30;;;;;;;8.36;90.69;100765.75;3560576;40;20576;-50
2021/04/10 09:42:34;;;;;;;12.57;9.80;;;;;;;8.73;89.42;100765.38;3561317;40;20042;-50
2021/04/10 09:45:40;;;;;;;15.35;10.00;;;;;;;9.05;89.52;100773.28;3564268;40;20034;-49
2021/04/10 09:48:19;;;;;;;13.32;10.20;;;;;;;9.52;89.65;100781.59;3527933;40;20352;-45
2021/04/10 09:50:50;;;;;;;12.80;9.23;;;;;;;8.88;87.94;100777.84;3560324;40;20053;-51
2021/04/10 09:53:19;;;;;;;9.93;8.20;;;;;;;8.49;88.06;100785.84;3563858;40;20150;-49
2021/04/10 09:55:59;;;;;;;14.63;9.18;;;;;;;8.67;88.54;100788.16;3564163;40;20441;-46
2021/04/10 09:58:33;;;;;;;10.07;8.73;;;;;;;9.23;88.12;100784.09;3564005;40;20060;-48
2021/04/10 10:01:04;;;;;;;14.27;10.50;;;;;;;9.43;85.20;100782.19;3562905;40;20060;-48
2021/04/10 10:03:31;;;;;;;14.75;10.32;;;;;;;9.78;84.04;100788.38;3563261;40;20416;-47
2021/04/10 10:06:36;;;;;;;11.13;9.82;;;;;;;9.85;85.02;100790.31;3561843;40;20057;-48
2021/04/10 10:09:28;;;;;;;11.93;10.70;;;;;;;9.55;87.01;100791.94;3561078;40;20071;-49
2021/04/10 10:11:57;;;;;;;14.38;9.85;;;;;;;9.98;84.59;100804.31;3564155;40;20048;-45
2021/04/10 10:14:24;;;;;;;10.38;9.25;;;;;;;9.83;84.86;100803.88;3565259;40;20300;-51
2021/04/10 10:16:53;;;;;;;12.73;8.90;;;;;;;10.24;81.86;100810.25;3569085;40;20061;-52
2021/04/10 10:19:21;;;;;;;11.25;9.13;;;;;;;9.53;84.49;100798.69;3565446;40;20049;-51
2021/04/10 10:21:48;;;;;;;14.25;10.38;;;;;;;8.76;88.13;100802.94;3565537;40;20061;-50
2021/04/10 10:24:20;;;;;;;13.05;9.57;;;;;;;9.23;85.62;100801.13;3564350;40;20061;-53
2021/04/10 10:26:47;;;;;;;10.43;9.25;;;;;;;9.69;84.76;100804.31;3565754;40;20356;-50
2021/04/10 10:29:16;;;;;;;10.82;8.43;;;;;;;9.28;82.77;100807.25;3564783;40;20103;-49
2021/04/10 10:31:53;;;;;;;9.07;8.18;;;;;;;10.04;79.30;100803.66;3565054;40;20159;-51
2021/04/10 10:34:23;;;;;;;9.15;7.90;;;;;;;10.62;76.48;100807.88;3564571;40;20446;-46
2021/04/10 10:36:53;;;;;;;8.90;7.28;;;;;;;10.24;77.50;100801.66;3565540;40;20093;-47
2021/04/10 10:39:39;;;;;;;11.23;7.95;;;;;;;10.34;77.30;100804.56;3565004;40;20053;-51
2021/04/10 10:42:06;;;;;;;9.55;7.75;;;;;;;10.67;80.37;100812.31;3564582;40;20139;-50
2021/04/10 10:44:39;;;;;;;8.75;7.63;;;;;;;11.01;77.48;100810.66;3564649;40;20054;-51
2021/04/10 10:47:07;;;;;;;10.07;8.35;;;;;;;10.70;76.25;100819.22;3565696;40;20057;-50
2021/04/10 10:49:35;;;;;;;9.95;8.00;;;;;;;9.94;80.34;100823.00;3564969;40;20046;-54
2021/04/10 10:52:02;;;;;;;9.65;8.73;;;;;;;9.32;79.08;100827.84;3558990;40;20052;-54
2021/04/10 10:54:31;;;;;;;13.32;10.45;;;;;;;9.64;78.81;100822.91;3567873;40;20339;-47
2021/04/10 10:57:05;;;;;;;10.55;9.43;;;;;;;10.14;75.78;100826.13;3561900;40;20045;-44
2021/04/10 10:59:52;;;;;;;12.15;9.38;;;;;;;9.64;78.88;100820.34;3560552;40;20049;-45
2021/04/10 11:02:20;;;;;;;11.77;9.57;;;;;;;10.67;74.01;100827.66;3562923;40;20057;-46
2021/04/10 11:04:48;;;;;;;10.77;9.15;;;;;;;9.50;78.05;100822.47;3564775;40;20058;-44
2021/04/10 11:07:24;;;;;;;10.13;8.52;;;;;;;10.14;78.91;100821.88;3563676;40;20053;-46
2021/04/10 11:09:53;;;;;;;10.10;7.30;;;;;;;10.16;73.33;100827.03;3561320;40;20166;-47
2021/04/10 11:12:23;;;;;;;7.68;6.85;;;;;;;9.53;74.21;100825.13;3566062;40;20434;-51
2021/04/10 11:14:57;;;;;;;9.52;7.07;;;;;;;9.98;76.42;100835.00;3563558;40;20060;-47
2021/04/10 11:17:33;;;;;;;8.00;7.15;;;;;;;11.32;69.09;100835.34;3551983;40;20510;-49
2021/04/10 11:20:21;;;;;;;9.43;7.05;;;;;;;10.76;68.45;100837.31;3562511;40;20082;-45
2021/04/10 11:23:07;;;;;;;9.40;8.00;;;;;;;10.65;72.86;100838.72;3562919;40;20174;-44
2021/04/10 11:25:49;;;;;;;8.80;7.70;;;;;;;10.28;71.83;100842.78;3563783;40;20065;-46
2021/04/10 11:28:33;;;;;;;10.82;8.18;;;;;;;10.25;74.34;100842.69;3562300;40;20082;-46
2021/04/10 11:31:08;;;;;;;13.23;8.95;;;;;;;10.67;70.22;100839.59;3560828;40;20054;-47
2021/04/10 11:33:37;;;;;;;11.07;8.00;;;;;;;9.66;73.67;100851.94;3564430;40;20068;-44